Vn Rebel _ — ILBR — position and weather

sailwx.info

Track history (hours):
 
Tides and Currents Weather Stations Pressure Air Temp Water Temp Dewpoint Dewpoint Depression Visibility Wind Speed Wind Dir Waves Ship Positions

Vn Rebel _

Last reported at 2014-Nov-24 08:33 UTC. Time now 2014-Nov-28 04:17 UTC.
Position N 43°07' E 005°55'.

Length 45 m; draft 2.4 m.

MMSI: 247010300.

Date/timePositionNaut miles runAvg speedWind from/ knotsBaromVisibWave heightAir tempDewpointWater temp
2014-Nov-24 08:33N 43°07' E 005°55'7 7.2
2014-Nov-24 07:33N 43°01' E 006°01'7 0.5
2014-Nov-23 17:33N 43°07' E 005°55'9 9.0
2014-Nov-23 16:33N 43°01' E 006°05'10 9.5
2014-Nov-23 15:33N 42°58' E 006°17'1110.5
2014-Nov-23 14:33N 42°57' E 006°32'1010.1
2014-Nov-23 13:33N 42°57' E 006°46'6 6.0
2014-Nov-23 12:33N 42°58' E 006°54'5 4.9
2014-Nov-23 11:29N 42°56' E 006°47'7 7.1
2014-Nov-23 10:33N 42°56' E 006°38'7 7.1
2014-Nov-23 09:33N 42°57' E 006°28'7 7.1
2014-Nov-23 08:33N 42°58' E 006°19'8 8.1
2014-Nov-23 07:33N 42°60' E 006°08'8 8.3
2014-Nov-23 06:33N 43°04' E 005°59'4 3.6
2014-Nov-23 05:33N 43°07' E 005°55'0 0.0
2014-Nov-22 17:20N 43°07' E 005°55'3 4.5
2014-Nov-22 16:33N 43°04' E 005°58'9 8.7
2014-Nov-22 15:33N 42°58' E 005°49'8 8.3
2014-Nov-22 14:33N 42°52' E 005°42'4 4.1
2014-Nov-22 13:33N 42°49' E 005°39'1 1.3
2014-Nov-22 12:33N 42°49' E 005°40'8 8.0
2014-Nov-22 11:33N 42°45' E 005°31'12 7.7
2014-Nov-22 10:03N 42°39' E 005°18'9 3.4
2014-Nov-22 07:28N 42°38' E 005°30'0 0.3
2014-Nov-22 06:32N 42°38' E 005°30'4 2.1
2014-Nov-22 04:29N 42°36' E 005°35'5 5.6
2014-Nov-22 03:33N 42°40' E 005°39'6 5.6
2014-Nov-22 02:33N 42°45' E 005°43'7 7.2
2014-Nov-22 01:33N 42°51' E 005°48'7 7.4
2014-Nov-22 00:33N 42°58' E 005°53'8 8.0
2014-Nov-21 23:33N 43°05' E 005°58'3 0.5
2014-Nov-21 17:34N 43°07' E 005°55'1 1.4
2014-Nov-21 16:34N 43°06' E 005°55'7 7.1
2014-Nov-21 15:33N 43°00' E 006°01'2 2.2
2014-Nov-21 14:33N 42°59' E 006°03'1 0.6
2014-Nov-21 13:33N 42°58' E 006°04'1 0.7
2014-Nov-21 12:33N 42°58' E 006°05'2 1.5
2014-Nov-21 11:33N 42°60' E 006°05'9 8.6
2014-Nov-21 10:34N 43°05' E 005°56'  
Track history (hours):
 
Tides and Currents Weather Stations Pressure Air Temp Water Temp Dewpoint Dewpoint Depression Visibility Wind Speed Wind Dir Waves Ship Positions

Vn Rebel _

Last reported at 2014-Nov-24 08:33 UTC. Time now 2014-Nov-28 04:17 UTC.
Position N 43°07' E 005°55'.

Length 45 m; draft 2.4 m.

MMSI: 247010300.

Date/timePositionNaut miles runAvg speedWind from/ knotsBaromVisibWave heightAir tempDewpointWater temp
2014-Nov-24 08:33N 43°07' E 005°55'7 7.2
2014-Nov-24 07:33N 43°01' E 006°01'7 0.5
2014-Nov-23 17:33N 43°07' E 005°55'9 9.0
2014-Nov-23 16:33N 43°01' E 006°05'10 9.5
2014-Nov-23 15:33N 42°58' E 006°17'1110.5
2014-Nov-23 14:33N 42°57' E 006°32'1010.1
2014-Nov-23 13:33N 42°57' E 006°46'6 6.0
2014-Nov-23 12:33N 42°58' E 006°54'5 4.9
2014-Nov-23 11:29N 42°56' E 006°47'7 7.1
2014-Nov-23 10:33N 42°56' E 006°38'7 7.1
2014-Nov-23 09:33N 42°57' E 006°28'7 7.1
2014-Nov-23 08:33N 42°58' E 006°19'8 8.1
2014-Nov-23 07:33N 42°60' E 006°08'8 8.3
2014-Nov-23 06:33N 43°04' E 005°59'4 3.6
2014-Nov-23 05:33N 43°07' E 005°55'0 0.0
2014-Nov-22 17:20N 43°07' E 005°55'3 4.5
2014-Nov-22 16:33N 43°04' E 005°58'9 8.7
2014-Nov-22 15:33N 42°58' E 005°49'8 8.3
2014-Nov-22 14:33N 42°52' E 005°42'4 4.1
2014-Nov-22 13:33N 42°49' E 005°39'1 1.3
2014-Nov-22 12:33N 42°49' E 005°40'8 8.0
2014-Nov-22 11:33N 42°45' E 005°31'12 7.7
2014-Nov-22 10:03N 42°39' E 005°18'9 3.4
2014-Nov-22 07:28N 42°38' E 005°30'0 0.3
2014-Nov-22 06:32N 42°38' E 005°30'4 2.1
2014-Nov-22 04:29N 42°36' E 005°35'5 5.6
2014-Nov-22 03:33N 42°40' E 005°39'6 5.6
2014-Nov-22 02:33N 42°45' E 005°43'7 7.2
2014-Nov-22 01:33N 42°51' E 005°48'7 7.4
2014-Nov-22 00:33N 42°58' E 005°53'8 8.0
2014-Nov-21 23:33N 43°05' E 005°58'3 0.5
2014-Nov-21 17:34N 43°07' E 005°55'1 1.4
2014-Nov-21 16:34N 43°06' E 005°55'7 7.1
2014-Nov-21 15:33N 43°00' E 006°01'2 2.2
2014-Nov-21 14:33N 42°59' E 006°03'1 0.6
2014-Nov-21 13:33N 42°58' E 006°04'1 0.7
2014-Nov-21 12:33N 42°58' E 006°05'2 1.5
2014-Nov-21 11:33N 42°60' E 006°05'9 8.6
2014-Nov-21 10:34N 43°05' E 005°56'  

Dump ship's entire track history